Terminal Aerodrome Forecast
Issued by NWS

Current Version | Previous Version | Text Only | Print | Product List | Glossary On
Versions: 1 2 3 4 5 6 7 8 9 10 11 12 13 14
000
FTUS42 KMHX 251720
TAFOAJ
TAF
KOAJ 251720Z 2518/2618 21011G22KT P6SM SCT090
     FM252000 22013G24KT P6SM VCTS SCT030CB BKN140
     FM260300 31010G19KT P6SM FEW250
      AMD LTD TO CLD VIS AND WIND=

USA.gov is the U.S. government's official web portal to all federal, state and local government web resources and services.